createdAt,value
2018-07-06T00:01:18.932Z,7.43
2018-07-06T00:04:26.282Z,6.50
2018-07-06T00:07:32.270Z,9.13
2018-07-06T00:10:38.130Z,8.68
2018-07-06T00:13:45.877Z,7.03
2018-07-06T00:16:53.629Z,9.30
2018-07-06T00:20:00.643Z,10.55
2018-07-06T00:23:08.169Z,10.52
2018-07-06T00:26:16.029Z,8.02
2018-07-06T00:29:23.309Z,10.45
2018-07-06T00:32:31.126Z,7.35
2018-07-06T00:35:37.786Z,8.98
2018-07-06T00:38:45.554Z,8.35
2018-07-06T00:41:53.324Z,12.00
2018-07-06T00:45:01.387Z,9.52
2018-07-06T00:48:08.906Z,9.50
2018-07-06T00:51:15.751Z,11.10
2018-07-06T00:54:21.846Z,14.18
2018-07-06T00:57:29.428Z,13.90
2018-07-06T01:00:36.527Z,11.70
2018-07-06T01:03:43.105Z,10.98
2018-07-06T01:06:49.038Z,10.57
2018-07-06T01:09:54.901Z,10.57
2018-07-06T01:13:06.397Z,12.60
2018-07-06T01:16:12.178Z,13.85
2018-07-06T01:19:18.232Z,14.38
2018-07-06T01:22:24.394Z,16.62
2018-07-06T01:25:32.038Z,17.17
2018-07-06T01:28:38.354Z,23.70
2018-07-06T01:31:44.006Z,22.00
2018-07-06T01:34:51.758Z,21.08
2018-07-06T01:37:58.870Z,19.87
2018-07-06T01:41:06.703Z,22.10
2018-07-06T01:44:14.058Z,24.08
2018-07-06T01:47:21.680Z,24.52
2018-07-06T01:50:27.638Z,23.67
2018-07-06T01:53:35.954Z,26.73
2018-07-06T01:56:41.135Z,27.48
2018-07-06T01:59:48.000Z,28.77
2018-07-06T02:02:55.346Z,27.10
2018-07-06T02:06:02.869Z,27.90
2018-07-06T02:09:08.832Z,31.50
2018-07-06T02:12:16.874Z,29.42
2018-07-06T02:15:23.120Z,30.20
2018-07-06T02:18:30.808Z,33.83
2018-07-06T02:21:36.989Z,34.10
2018-07-06T02:24:45.200Z,30.30
2018-07-06T02:27:51.454Z,33.45
2018-07-06T02:30:59.129Z,37.35
2018-07-06T02:34:05.199Z,39.28
2018-07-06T02:37:11.390Z,37.38
2018-07-06T02:40:17.876Z,38.53
2018-07-06T02:43:24.210Z,39.63
2018-07-06T02:46:32.080Z,37.60
2018-07-06T02:49:40.029Z,35.65
2018-07-06T02:52:47.145Z,34.70
2018-07-06T02:55:54.218Z,38.75
2018-07-06T02:59:00.419Z,36.92
2018-07-06T03:02:06.638Z,41.55
2018-07-06T03:05:14.450Z,40.72
2018-07-06T03:08:20.566Z,44.35
2018-07-06T03:11:26.957Z,43.70
2018-07-06T03:14:33.538Z,45.45
2018-07-06T03:17:39.510Z,42.20
2018-07-06T03:20:47.109Z,44.17
2018-07-06T03:23:53.241Z,47.72
2018-07-06T03:27:00.725Z,44.53
2018-07-06T03:30:08.109Z,45.25
2018-07-06T03:33:15.794Z,51.30
2018-07-06T03:36:23.311Z,42.88
2018-07-06T03:39:30.769Z,48.35
2018-07-06T03:42:38.174Z,48.65
2018-07-06T03:45:44.166Z,48.30
2018-07-06T03:48:51.677Z,48.30
2018-07-06T03:51:59.580Z,48.03
2018-07-06T03:55:05.689Z,46.17
2018-07-06T03:58:13.278Z,43.78
2018-07-06T04:01:19.241Z,44.20
2018-07-06T04:04:25.165Z,47.13
2018-07-06T04:07:32.770Z,42.20
2018-07-06T04:10:40.891Z,45.25
2018-07-06T04:13:46.849Z,48.63
2018-07-06T04:16:54.056Z,47.05
2018-07-06T04:19:59.881Z,43.40
2018-07-06T04:23:07.475Z,48.85
2018-07-06T04:26:14.319Z,41.78
2018-07-06T04:29:20.931Z,47.72
2018-07-06T04:32:28.642Z,42.70
2018-07-06T04:35:34.197Z,46.88
2018-07-06T04:38:41.895Z,42.83
2018-07-06T04:41:48.450Z,35.80
2018-07-06T04:44:55.745Z,40.75
2018-07-06T04:48:03.553Z,39.38
2018-07-06T04:51:09.431Z,38.63
2018-07-06T04:54:15.454Z,42.22
2018-07-06T04:57:21.738Z,36.78
2018-07-06T05:00:27.182Z,40.40
2018-07-06T05:03:33.164Z,30.10
2018-07-06T05:06:39.007Z,27.85
2018-07-06T05:09:44.781Z,28.42
2018-07-06T05:12:50.843Z,26.23
2018-07-06T05:15:58.363Z,27.87
2018-07-06T05:19:04.585Z,25.30
2018-07-06T05:22:12.172Z,23.92
2018-07-06T05:25:20.011Z,23.62
2018-07-06T05:28:27.564Z,22.37
2018-07-06T05:31:34.485Z,22.08
2018-07-06T05:34:42.575Z,21.65
2018-07-06T05:37:49.111Z,23.08
2018-07-06T05:40:55.094Z,23.33
2018-07-06T05:44:00.673Z,19.45
2018-07-06T05:47:06.734Z,20.67
2018-07-06T05:50:13.645Z,16.87
2018-07-06T05:53:21.516Z,17.87
2018-07-06T05:56:27.791Z,22.55
2018-07-06T05:59:35.272Z,21.00
2018-07-06T06:02:42.774Z,18.90
2018-07-06T06:05:49.990Z,17.60
2018-07-06T06:08:19.915Z,15.95
2018-07-06T06:10:52.833Z,17.83
2018-07-06T06:13:26.111Z,26.02
2018-07-06T06:15:59.137Z,19.98
2018-07-06T06:18:32.152Z,23.60
2018-07-06T06:21:05.110Z,20.65
2018-07-06T06:23:36.504Z,17.23
2018-07-06T06:26:07.108Z,16.55
2018-07-06T06:28:38.692Z,18.55
2018-07-06T06:31:10.232Z,16.98
2018-07-06T06:33:43.305Z,16.42
2018-07-06T06:36:14.724Z,16.58
2018-07-06T06:38:45.687Z,17.10
2018-07-06T06:41:16.059Z,15.85
2018-07-06T06:43:46.559Z,19.65
2018-07-06T06:46:18.199Z,12.80
2018-07-06T06:48:49.893Z,14.30
2018-07-06T06:51:19.335Z,16.50
2018-07-06T06:53:52.361Z,14.55
2018-07-06T06:56:25.235Z,13.25
2018-07-06T06:58:56.711Z,18.58
2018-07-06T07:01:28.606Z,18.73
2018-07-06T07:03:58.539Z,15.75
2018-07-06T07:06:31.568Z,21.90
2018-07-06T07:09:05.133Z,16.73
2018-07-06T07:11:37.313Z,17.25
2018-07-06T07:14:08.256Z,18.67
2018-07-06T07:16:39.670Z,16.85
2018-07-06T07:19:12.802Z,19.87
2018-07-06T07:21:42.820Z,17.52
2018-07-06T07:24:17.797Z,13.80
2018-07-06T07:26:49.216Z,14.23
2018-07-06T07:29:21.381Z,13.07
2018-07-06T07:31:52.136Z,14.93
2018-07-06T07:34:23.732Z,12.18
2018-07-06T07:36:58.444Z,10.75
2018-07-06T07:39:30.027Z,15.05
2018-07-06T07:41:59.660Z,13.10
2018-07-06T07:44:31.355Z,12.65
2018-07-06T07:47:02.846Z,15.50
2018-07-06T07:49:35.027Z,15.18
2018-07-06T07:52:42.370Z,14.90
2018-07-06T07:55:12.342Z,12.95
2018-07-06T07:57:42.181Z,12.30
2018-07-06T08:00:14.420Z,16.55
2018-07-06T08:02:46.102Z,12.88
2018-07-06T08:05:17.682Z,16.40
2018-07-06T08:07:50.903Z,18.20
2018-07-06T08:10:20.992Z,17.05
2018-07-06T08:12:51.381Z,13.82
2018-07-06T08:15:21.597Z,15.20
2018-07-06T08:17:53.718Z,17.60
2018-07-06T08:20:27.901Z,15.00
2018-07-06T08:22:59.394Z,14.15
2018-07-06T08:25:34.938Z,14.77
2018-07-06T08:28:06.956Z,15.38
2018-07-06T08:30:39.237Z,13.48
2018-07-06T08:33:14.557Z,15.60
2018-07-06T08:36:27.427Z,13.48
2018-07-06T08:39:00.513Z,11.85
2018-07-06T08:41:36.879Z,13.65
2018-07-06T08:44:09.559Z,14.30
2018-07-06T08:46:41.841Z,13.80
2018-07-06T08:49:14.585Z,15.57
2018-07-06T08:51:49.749Z,13.30
2018-07-06T08:54:23.064Z,13.93
2018-07-06T08:56:58.516Z,15.07
2018-07-06T08:59:33.562Z,12.00
2018-07-06T09:02:06.936Z,16.40
2018-07-06T09:04:40.313Z,13.85
2018-07-06T09:07:15.161Z,13.20
2018-07-06T09:09:48.929Z,12.40
2018-07-06T09:12:23.609Z,11.98
2018-07-06T09:14:57.057Z,15.57
2018-07-06T09:17:30.807Z,14.05
2018-07-06T09:20:01.783Z,13.02
2018-07-06T09:22:36.590Z,12.68
2018-07-06T09:25:09.130Z,12.68
2018-07-06T09:27:41.977Z,12.73
2018-07-06T09:30:15.981Z,12.52
2018-07-06T09:32:48.142Z,12.75
2018-07-06T09:35:21.249Z,13.90
2018-07-06T09:37:56.159Z,11.85
2018-07-06T09:40:31.719Z,12.90
2018-07-06T09:43:05.771Z,14.48
2018-07-06T09:45:40.001Z,13.30
2018-07-06T09:48:14.638Z,10.15
2018-07-06T09:50:46.314Z,10.85
2018-07-06T09:53:19.575Z,12.15
2018-07-06T09:55:53.600Z,11.25
2018-07-06T09:58:26.256Z,10.05
2018-07-06T10:01:01.516Z,13.07
2018-07-06T10:03:33.581Z,11.95
2018-07-06T10:06:05.541Z,10.57
2018-07-06T10:08:41.186Z,11.23
2018-07-06T10:11:13.304Z,11.50
2018-07-06T10:13:49.688Z,11.40
2018-07-06T10:16:23.781Z,14.25
2018-07-06T10:18:56.767Z,10.75
2018-07-06T10:21:31.880Z,11.73
2018-07-06T10:24:03.249Z,11.40
2018-07-06T10:26:38.181Z,12.30
2018-07-06T10:29:46.269Z,9.52
2018-07-06T10:32:26.393Z,12.75
2018-07-06T10:34:57.622Z,12.80
2018-07-06T10:37:30.908Z,10.27
2018-07-06T10:40:02.992Z,8.80
2018-07-06T10:42:34.662Z,12.18
2018-07-06T10:45:07.515Z,10.10
2018-07-06T10:47:38.952Z,8.88
2018-07-06T10:50:09.585Z,10.07
2018-07-06T10:52:40.269Z,9.93
2018-07-06T10:55:11.824Z,8.47
2018-07-06T10:57:46.630Z,9.85
2018-07-06T11:00:19.464Z,8.55
2018-07-06T11:02:49.373Z,7.93
2018-07-06T11:05:22.378Z,8.68
2018-07-06T11:07:51.832Z,9.05
2018-07-06T11:10:23.969Z,8.07
2018-07-06T11:12:55.445Z,8.30
2018-07-06T11:15:26.971Z,8.27
2018-07-06T11:17:58.281Z,8.45
2018-07-06T11:20:31.290Z,6.97
2018-07-06T11:23:04.634Z,9.63
2018-07-06T11:25:37.989Z,6.68
2018-07-06T11:28:08.350Z,6.12
2018-07-06T11:30:42.758Z,7.18
2018-07-06T11:33:12.632Z,7.60
2018-07-06T11:35:44.049Z,10.50
2018-07-06T11:38:15.769Z,7.22
2018-07-06T11:40:48.670Z,7.25
2018-07-06T11:43:21.584Z,8.38
2018-07-06T11:45:52.993Z,7.90
2018-07-06T11:48:25.767Z,8.80
2018-07-06T11:50:59.568Z,9.60
2018-07-06T11:53:30.105Z,6.68
2018-07-06T11:56:00.174Z,6.68
2018-07-06T11:58:32.901Z,6.28
2018-07-06T12:01:04.264Z,6.97
2018-07-06T12:03:35.883Z,7.57
2018-07-06T12:06:10.246Z,8.13
2018-07-06T12:08:41.672Z,7.43
2018-07-06T12:11:13.482Z,5.47
2018-07-06T12:13:44.871Z,5.87
2018-07-06T12:16:14.766Z,5.43
2018-07-06T12:18:46.200Z,5.72
2018-07-06T12:21:17.603Z,5.03
2018-07-06T12:23:50.470Z,5.53
2018-07-06T12:26:23.267Z,4.37
2018-07-06T12:28:57.564Z,6.37
2018-07-06T12:31:28.918Z,5.35
2018-07-06T12:34:01.706Z,4.15
2018-07-06T12:36:37.346Z,4.30
2018-07-06T12:39:10.839Z,7.65
2018-07-06T12:41:42.327Z,6.07
2018-07-06T12:44:12.277Z,5.35
2018-07-06T12:46:45.267Z,5.80
2018-07-06T12:49:18.139Z,12.00
2018-07-06T12:51:50.967Z,4.80
2018-07-06T12:54:22.525Z,3.87
2018-07-06T12:56:53.879Z,8.32
2018-07-06T12:59:23.860Z,5.78
2018-07-06T13:01:56.789Z,4.50
2018-07-06T13:04:29.843Z,5.00
2018-07-06T13:07:02.776Z,4.75
2018-07-06T13:09:35.967Z,6.75
2018-07-06T13:12:07.455Z,5.30
2018-07-06T13:14:40.324Z,5.68
2018-07-06T13:17:11.769Z,4.93
2018-07-06T13:19:43.281Z,5.72
2018-07-06T13:22:16.428Z,5.50
2018-07-06T13:24:49.427Z,5.55
2018-07-06T13:27:22.659Z,4.47
2018-07-06T13:29:55.215Z,6.40
2018-07-06T13:32:28.480Z,6.32
2018-07-06T13:35:01.459Z,6.65
2018-07-06T13:37:35.632Z,5.18
2018-07-06T13:40:05.608Z,7.70
2018-07-06T13:42:38.626Z,4.37
2018-07-06T13:45:12.962Z,6.25
2018-07-06T13:47:45.797Z,7.78
2018-07-06T13:50:18.719Z,4.78
2018-07-06T13:52:51.706Z,7.30
2018-07-06T13:55:24.764Z,8.10
2018-07-06T13:57:54.665Z,6.85
2018-07-06T14:00:26.107Z,5.47
2018-07-06T14:02:59.458Z,4.37
2018-07-06T14:05:32.242Z,5.37
2018-07-06T14:08:06.610Z,8.90
2018-07-06T14:10:41.809Z,5.40
2018-07-06T14:13:13.492Z,4.60
2018-07-06T14:15:45.785Z,6.90
2018-07-06T14:18:17.854Z,5.07
2018-07-06T14:20:47.691Z,5.72
2018-07-06T14:23:19.123Z,5.32
2018-07-06T14:25:53.573Z,10.38
2018-07-06T14:28:25.726Z,10.18
2018-07-06T14:30:57.059Z,7.37
2018-07-06T14:33:30.294Z,3.55
2018-07-06T14:36:01.740Z,4.25
2018-07-06T14:38:34.787Z,4.75
2018-07-06T14:41:06.322Z,3.97
2018-07-06T14:43:39.056Z,4.28
2018-07-06T14:46:10.548Z,5.65
2018-07-06T14:48:42.434Z,4.32
2018-07-06T14:51:15.604Z,4.03
2018-07-06T14:53:50.196Z,4.10
2018-07-06T14:56:23.150Z,6.15
2018-07-06T14:59:00.025Z,9.38
2018-07-06T15:01:32.801Z,4.12
2018-07-06T15:04:07.542Z,4.55
2018-07-06T15:06:38.733Z,5.32
2018-07-06T15:09:13.269Z,5.37
2018-07-06T15:11:44.682Z,6.35
2018-07-06T15:14:17.678Z,4.72
2018-07-06T15:16:49.241Z,5.50
2018-07-06T15:19:22.058Z,5.60
2018-07-06T15:21:53.415Z,5.62
2018-07-06T15:24:23.970Z,6.70
2018-07-06T15:26:58.393Z,4.90
2018-07-06T15:29:31.318Z,5.37
2018-07-06T15:32:04.241Z,6.87
2018-07-06T15:34:37.087Z,6.62
2018-07-06T15:37:08.707Z,11.85
2018-07-06T15:39:43.075Z,12.30
2018-07-06T15:42:12.520Z,8.30
2018-07-06T15:44:42.541Z,9.30
2018-07-06T15:47:12.613Z,6.68
2018-07-06T15:49:43.692Z,7.72
2018-07-06T15:52:18.124Z,8.27
2018-07-06T15:54:51.538Z,6.55
2018-07-06T15:57:23.160Z,7.28
2018-07-06T15:59:55.829Z,7.00
2018-07-06T16:02:25.794Z,6.70
2018-07-06T16:04:58.661Z,7.18
2018-07-06T16:07:33.129Z,7.35
2018-07-06T16:10:03.155Z,7.25
2018-07-06T16:12:34.505Z,6.03
2018-07-06T16:15:06.579Z,5.78
2018-07-06T16:17:38.294Z,7.12
2018-07-06T16:20:10.512Z,4.53
2018-07-06T16:22:43.251Z,10.75
2018-07-06T16:25:17.624Z,5.32
2018-07-06T16:27:49.019Z,4.53
2018-07-06T16:30:21.839Z,5.95
2018-07-06T16:32:55.442Z,4.43
2018-07-06T16:35:30.091Z,6.68
2018-07-06T16:38:03.032Z,5.05
2018-07-06T16:40:33.421Z,6.00
2018-07-06T16:43:06.395Z,5.37
2018-07-06T16:45:37.891Z,9.02
2018-07-06T16:48:09.469Z,6.82
2018-07-06T16:50:39.358Z,5.65
2018-07-06T16:53:10.834Z,4.68
2018-07-06T16:55:43.663Z,7.32
2018-07-06T16:58:16.728Z,5.12
2018-07-06T17:00:48.172Z,4.32
2018-07-06T17:03:21.652Z,5.72
2018-07-06T17:05:53.063Z,6.32
2018-07-06T17:08:23.928Z,6.43
2018-07-06T17:10:55.642Z,6.82
2018-07-06T17:13:27.154Z,8.35
2018-07-06T17:16:00.076Z,9.88
2018-07-06T17:18:33.151Z,5.03
2018-07-06T17:21:04.568Z,6.68
2018-07-06T17:23:39.215Z,8.32
2018-07-06T17:26:10.549Z,4.45
2018-07-06T17:28:43.557Z,5.03
2018-07-06T17:31:15.922Z,5.20
2018-07-06T17:33:48.455Z,8.07
2018-07-06T17:36:23.067Z,6.43
2018-07-06T17:38:53.211Z,6.22
2018-07-06T17:41:24.749Z,6.03
2018-07-06T17:43:56.138Z,4.05
2018-07-06T17:46:30.478Z,5.62
2018-07-06T17:49:02.013Z,5.78
2018-07-06T17:51:32.358Z,8.88
2018-07-06T17:54:03.824Z,5.05
2018-07-06T17:56:36.800Z,5.45
2018-07-06T17:59:09.693Z,6.45
2018-07-06T18:01:41.130Z,5.87
2018-07-06T18:04:12.660Z,5.43
2018-07-06T18:06:44.039Z,6.62
2018-07-06T18:09:14.134Z,5.95
2018-07-06T18:11:48.149Z,5.07
2018-07-06T18:14:21.166Z,8.80
2018-07-06T18:16:52.985Z,5.37
2018-07-06T18:19:24.576Z,5.75
2018-07-06T18:21:57.367Z,6.18
2018-07-06T18:24:30.657Z,4.30
2018-07-06T18:27:02.571Z,3.78
2018-07-06T18:29:35.079Z,3.33
2018-07-06T18:32:08.000Z,5.57
2018-07-06T18:34:38.373Z,2.58
2018-07-06T18:37:11.374Z,3.33
2018-07-06T18:39:43.211Z,3.28
2018-07-06T18:42:16.311Z,2.83
2018-07-06T18:44:46.429Z,7.47
2018-07-06T18:47:19.735Z,7.03
2018-07-06T18:49:51.353Z,3.83
2018-07-06T18:52:22.765Z,3.37
2018-07-06T18:54:55.691Z,2.42
2018-07-06T18:57:28.966Z,7.30
2018-07-06T19:00:03.387Z,7.20
2018-07-06T19:02:38.009Z,4.00
2018-07-06T19:05:10.886Z,6.45
2018-07-06T19:07:42.246Z,6.60
2018-07-06T19:10:13.708Z,4.97
2018-07-06T19:12:47.115Z,5.57
2018-07-06T19:15:20.083Z,2.72
2018-07-06T19:17:53.631Z,4.03
2018-07-06T19:20:26.561Z,4.32
2018-07-06T19:22:59.472Z,6.62
2018-07-06T19:25:29.476Z,4.97
2018-07-06T19:28:02.565Z,3.22
2018-07-06T19:30:34.007Z,4.28
2018-07-06T19:33:08.336Z,5.30
2018-07-06T19:35:41.296Z,5.10
2018-07-06T19:38:14.285Z,8.50
2018-07-06T19:40:47.166Z,5.20
2018-07-06T19:43:18.622Z,4.82
2018-07-06T19:45:51.424Z,4.47
2018-07-06T19:48:23.631Z,6.45
2018-07-06T19:50:56.614Z,2.40
2018-07-06T19:53:29.639Z,4.60
2018-07-06T19:55:59.656Z,4.78
2018-07-06T19:58:34.646Z,4.50
2018-07-06T20:01:07.159Z,3.42
2018-07-06T20:03:38.708Z,5.70
2018-07-06T20:06:13.149Z,6.00
2018-07-06T20:08:46.234Z,4.05
2018-07-06T20:11:16.386Z,3.85
2018-07-06T20:13:46.405Z,9.00
2018-07-06T20:16:19.308Z,7.10
2018-07-06T20:18:49.255Z,5.07
2018-07-06T20:21:24.095Z,7.65
2018-07-06T20:23:54.529Z,4.20
2018-07-06T20:26:27.498Z,5.87
2018-07-06T20:28:59.542Z,2.45
2018-07-06T20:31:30.962Z,5.80
2018-07-06T20:34:00.888Z,5.93
2018-07-06T20:36:32.446Z,4.85
2018-07-06T20:39:03.962Z,8.20
2018-07-06T20:41:36.978Z,2.83
2018-07-06T20:44:07.893Z,4.45
2018-07-06T20:46:42.497Z,5.20
2018-07-06T20:49:13.899Z,3.40
2018-07-06T20:51:46.898Z,4.28
2018-07-06T20:54:19.839Z,3.30
2018-07-06T20:56:51.377Z,4.57
2018-07-06T20:59:22.890Z,7.68
2018-07-06T21:01:55.901Z,12.57
2018-07-06T21:04:30.436Z,4.22
2018-07-06T21:07:01.887Z,6.28
2018-07-06T21:09:34.846Z,5.25
2018-07-06T21:12:08.314Z,5.60
2018-07-06T21:14:41.773Z,7.62
2018-07-06T21:17:13.237Z,5.50
2018-07-06T21:19:45.122Z,7.60
2018-07-06T21:22:16.657Z,2.37
2018-07-06T21:24:49.488Z,6.30
2018-07-06T21:27:22.703Z,6.93
2018-07-06T21:29:55.945Z,6.70
2018-07-06T21:32:29.944Z,3.58
2018-07-06T21:35:00.049Z,6.37
2018-07-06T21:37:30.161Z,7.60
2018-07-06T21:40:01.612Z,6.45
2018-07-06T21:42:36.267Z,6.12
2018-07-06T21:45:10.871Z,8.48
2018-07-06T21:47:40.794Z,6.20
2018-07-06T21:50:13.615Z,6.12
2018-07-06T21:52:45.337Z,4.40
2018-07-06T21:55:17.054Z,4.32
2018-07-06T21:57:50.061Z,5.47
2018-07-06T22:00:41.467Z,4.35
2018-07-06T22:03:15.006Z,6.90
2018-07-06T22:05:47.972Z,7.18
2018-07-06T22:08:22.269Z,5.50
2018-07-06T22:10:54.897Z,6.95
2018-07-06T22:13:27.889Z,7.87
2018-07-06T22:15:58.358Z,5.35
2018-07-06T22:18:31.444Z,6.20
2018-07-06T22:21:04.500Z,5.82
2018-07-06T22:23:37.117Z,3.83
2018-07-06T22:26:06.104Z,5.78
2018-07-06T22:28:37.887Z,8.90
2018-07-06T22:31:10.391Z,8.75
2018-07-06T22:33:42.127Z,5.15
2018-07-06T22:36:16.785Z,6.80
2018-07-06T22:38:49.837Z,4.75
2018-07-06T22:41:21.312Z,7.43
2018-07-06T22:43:54.590Z,6.15
2018-07-06T22:46:27.805Z,8.68
2018-07-06T22:48:59.358Z,7.55
2018-07-06T22:51:32.360Z,11.20
2018-07-06T22:54:04.117Z,10.48
2018-07-06T22:56:35.814Z,12.77
2018-07-06T22:59:10.439Z,8.57
2018-07-06T23:01:41.984Z,7.62
2018-07-06T23:04:13.631Z,10.55
2018-07-06T23:06:47.082Z,5.68
2018-07-06T23:09:21.556Z,3.22
2018-07-06T23:11:54.520Z,10.68
2018-07-06T23:14:27.703Z,9.15
2018-07-06T23:17:00.642Z,7.10
2018-07-06T23:19:33.438Z,5.28
2018-07-06T23:22:08.205Z,5.55
2018-07-06T23:24:41.191Z,4.60
2018-07-06T23:27:13.587Z,4.60
2018-07-06T23:29:47.778Z,6.62
2018-07-06T23:32:20.965Z,7.25
2018-07-06T23:34:53.036Z,5.55
2018-07-06T23:37:26.105Z,5.07
2018-07-06T23:39:58.934Z,6.68
2018-07-06T23:42:28.905Z,5.55
2018-07-06T23:45:01.966Z,4.62
2018-07-06T23:47:31.934Z,4.97
2018-07-06T23:50:03.575Z,6.80
2018-07-06T23:52:34.980Z,4.90
2018-07-06T23:55:06.896Z,3.58
2018-07-06T23:57:40.039Z,7.53
